ADDS METAR Data INFO
IDs: Format: Raw Decoded Include TAF

Data at: 1309 UTC 11 Dec 2017

KPTB 111258Z AUTO 23005KT 10SM CLR M01/M05 A3012 RMK AO2
KPTB 111239Z AUTO 23004KT 10SM CLR M02/M05 A3011 RMK AO2
KPTB 111218Z AUTO 23004KT 10SM CLR M02/M05 A3011 RMK AO2
KPTB 111158Z AUTO 23004KT 10SM CLR M02/M05 A3011 RMK AO2
KPTB 111138Z AUTO 23003KT 10SM CLR M02/M05 A3010 RMK AO2
KPTB 111058Z AUTO 24006KT 10SM CLR M01/M05 A3008 RMK AO2
KPTB 111038Z AUTO 23004KT 10SM CLR M01/M05 A3008 RMK AO2
KPTB 111018Z AUTO 23005KT 10SM CLR M01/M05 A3008 RMK AO2
KPTB 110958Z AUTO 23005KT 10SM CLR M01/M05 A3008 RMK AO2
KPTB 110938Z AUTO 23004KT 10SM CLR M01/M05 A3007 RMK AO2
KPTB 110918Z AUTO 24004KT 10SM CLR M01/M05 A3007 RMK AO2
KPTB 110858Z AUTO 23004KT 10SM CLR 00/M04 A3007 RMK AO2
KPTB 110838Z AUTO 23005KT 10SM CLR M01/M04 A3007 RMK AO2
KPTB 110818Z AUTO 23005KT 10SM CLR M01/M04 A3008 RMK AO2
KPTB 110759Z AUTO 23004KT 10SM CLR 00/M04 A3008 RMK AO2
KPTB 110738Z AUTO 23004KT 10SM SCT090 00/M04 A3008 RMK AO2
KPTB 110718Z AUTO 21003KT 10SM SCT090 M01/M04 A3008 RMK AO2
KPTB 110658Z AUTO 21004KT 10SM SCT100 M01/M04 A3008 RMK AO2
KPTB 110638Z AUTO 21003KT 10SM SCT100 M01/M04 A3008 RMK AO2
KPTB 110618Z AUTO 20003KT 10SM CLR M01/M04 A3009 RMK AO2
KPTB 110558Z AUTO 20003KT 10SM SCT100 M01/M04 A3009 RMK AO2
KPTB 110538Z AUTO 21004KT 10SM BKN100 M01/M04 A3010 RMK AO2
KPTB 110520Z AUTO 20004KT 10SM SCT100 M01/M04 A3010 RMK AO2
KPTB 110458Z AUTO 00000KT 10SM BKN100 M01/M04 A3011 RMK AO2
KPTB 110440Z AUTO 21003KT 10SM BKN100 00/M04 A3011 RMK AO2
KPTB 110418Z AUTO 20004KT 10SM OVC100 00/M03 A3011 RMK AO2
KPTB 110358Z AUTO 00000KT 10SM SCT110 00/M03 A3012 RMK AO2
KPTB 110318Z AUTO 21003KT 10SM OVC110 00/M03 A3013 RMK AO2
KPTB 110258Z AUTO 00000KT 10SM OVC110 00/M03 A3013 RMK AO2
KPTB 110239Z AUTO 00000KT 10SM OVC110 00/M03 A3013 RMK AO2
KPTB 110219Z AUTO 00000KT 10SM BKN110 00/M03 A3013 RMK AO2
KPTB 110158Z AUTO 00000KT 10SM SCT110 M01/M03 A3013 RMK AO2
KPTB 110138Z AUTO 20003KT 10SM CLR M01/M03 A3013 RMK AO2
KPTB 110118Z AUTO 17003KT 10SM CLR M01/M03 A3013 RMK AO2
KPTB 110058Z AUTO 00000KT 10SM CLR 00/M03 A3012 RMK AO2
KPTB 110039Z AUTO 16003KT 10SM CLR 00/M03 A3012 RMK AO2
KPTB 110019Z AUTO 00000KT 10SM CLR M01/M04 A3013 RMK AO2
KPTB 102338Z AUTO 00000KT 10SM CLR 00/M03 A3012 RMK AO2
KPTB 102258Z AUTO 21003KT 10SM CLR M01/M03 A3013 RMK AO2
KPTB 102238Z AUTO 00000KT 10SM CLR 00/M03 A3012 RMK AO2
KPTB 102218Z AUTO 00000KT 10SM CLR 01/M03 A3012 RMK AO2
KPTB 102158Z AUTO 21003KT 10SM CLR 02/M03 A3011 RMK AO2
KPTB 102138Z AUTO 21003KT 10SM SCT034 02/M03 A3011 RMK AO2
KPTB 102118Z AUTO 23005KT 10SM SCT034 03/M03 A3011 RMK AO2
KPTB 102058Z AUTO 24006KT 10SM SCT032 03/M03 A3011 RMK AO2
KPTB 102039Z AUTO 24007KT 10SM SCT030 03/M03 A3011 RMK AO2
KPTB 102019Z AUTO 24007KT 10SM SCT030 03/M03 A3011 RMK AO2
KPTB 101938Z AUTO 25009KT 10SM SCT032 03/M03 A3010 RMK AO2
KPTB 101918Z AUTO 26009KT 10SM SCT034 03/M04 A3011 RMK AO2
KPTB 101858Z AUTO 25009KT 10SM BKN032 03/M03 A3011 RMK AO2
KPTB 101838Z AUTO 26010G14KT 10SM SCT030 03/M03 A3011 RMK AO2
KPTB 101818Z AUTO 25006KT 10SM CLR 04/M03 A3012 RMK AO2
KPTB 101758Z AUTO 25009KT 10SM CLR 03/M03 A3012 RMK AO2
KPTB 101738Z AUTO 25008KT 10SM CLR 03/M03 A3013 RMK AO2
KPTB 101718Z AUTO 25008KT 10SM CLR 03/M03 A3013 RMK AO2
KPTB 101658Z AUTO 25006KT 10SM CLR 03/M02 A3014 RMK AO2
KPTB 101638Z AUTO 26006KT 10SM CLR 03/M02 A3015 RMK AO2 P0001
KPTB 101618Z AUTO 23004KT 10SM CLR 02/M02 A3016 RMK AO2 P0001
KPTB 101558Z AUTO 25008KT 10SM CLR 02/M02 A3015 RMK AO2
KPTB 101538Z AUTO 24006KT 10SM CLR 02/M03 A3015 RMK AO2 P0002
KPTB 101518Z AUTO 24008KT 10SM CLR 01/M03 A3015 RMK AO2 P0001
KPTB 101458Z AUTO 24006KT 10SM CLR 01/M03 A3014 RMK AO2
KPTB 101438Z AUTO 25004KT 10SM CLR 01/M03 A3013 RMK AO2
KPTB 101419Z AUTO 25003KT 10SM CLR 00/M03 A3012 RMK AO2
KPTB 101358Z AUTO 25004KT 10SM CLR M01/M04 A3012 RMK AO2
KPTB 101338Z AUTO 25005KT 10SM CLR M01/M04 A3011 RMK AO2
KPTB 101319Z AUTO 25004KT 10SM CLR M01/M04 A3010 RMK AO2
KPTB 101258Z AUTO 25005KT 10SM CLR M02/M04 A3009 RMK AO2
KPTB 101238Z AUTO 25005KT 10SM CLR M02/M04 A3009 RMK AO2
KPTB 101218Z AUTO 25005KT 10SM CLR M02/M04 A3008 RMK AO2
KPTB 101158Z AUTO 26005KT 10SM CLR M02/M04 A3007 RMK AO2
KPTB 101138Z AUTO 26005KT 10SM CLR M02/M04 A3005 RMK AO2
KPTB 101058Z AUTO 26003KT 10SM CLR M01/M03 A3002 RMK AO2
KPTB 101038Z AUTO 27004KT 10SM CLR M01/M03 A3001 RMK AO2 P0001
KPTB 101018Z AUTO 26005KT 10SM SCT070 M01/M03 A3000 RMK AO2
KPTB 100958Z AUTO 27005KT 10SM OVC070 00/M02 A2999 RMK AO2
KPTB 100918Z AUTO 24003KT 7SM OVC070 M01/M02 A2997 RMK AO2
KPTB 100858Z AUTO 22003KT 5SM BR BKN065 BKN100 M01/M02 A2996 RMK AO2
KPTB 100838Z AUTO 00000KT 7SM SCT065 OVC100 M01/M01 A2995 RMK AO2 P0001
KPTB 100819Z AUTO 23003KT 7SM SCT065 BKN080 OVC110 00/M01 A2995 RMK AO2 P0001
KPTB 100759Z AUTO 00000KT 10SM SCT008 SCT065 OVC080 00/M01 A2995 RMK AO2
KPTB 100718Z AUTO 00000KT 10SM OVC008 00/M01 A2993 RMK AO2
KPTB 100658Z AUTO 00000KT 10SM OVC010 00/M01 A2993 RMK AO2
KPTB 100638Z AUTO 00000KT 10SM OVC014 00/M01 A2992 RMK AO2
KPTB 100618Z AUTO 00000KT 10SM OVC016 00/M01 A2992 RMK AO2
KPTB 100558Z AUTO 00000KT 10SM OVC016 00/M01 A2992 RMK AO2
KPTB 100538Z AUTO 00000KT 10SM OVC014 00/M01 A2991 RMK AO2
KPTB 100518Z AUTO 00000KT 10SM OVC014 00/M01 A2991 RMK AO2
KPTB 100458Z AUTO 00000KT 10SM OVC012 00/M01 A2991 RMK AO2
KPTB 100439Z AUTO 21003KT 10SM OVC012 00/M01 A2991 RMK AO2
KPTB 100419Z AUTO 21003KT 10SM OVC012 00/M01 A2991 RMK AO2
KPTB 100358Z AUTO 25005KT 10SM BKN006 OVC010 00/M01 A2991 RMK AO2
KPTB 100319Z AUTO 24006KT 7SM OVC004 00/M01 A2991 RMK AO2
KPTB 100258Z AUTO 25004KT 10SM OVC004 00/M01 A2990 RMK AO2
KPTB 100238Z AUTO 26004KT 10SM OVC004 00/M01 A2988 RMK AO2
KPTB 100218Z AUTO 25004KT 7SM OVC004 00/M01 A2987 RMK AO2
KPTB 100158Z AUTO 00000KT 7SM OVC006 00/M01 A2987 RMK AO2
KPTB 100118Z AUTO 00000KT 7SM OVC008 00/M01 A2987 RMK AO2